Time;durP1;ratioP1;P1;durP2;ratioP2;P2;SDS_P1;SDS_P2;PMS_P1;PMS_P2;Temp;Humidity;BMP_temperature;BMP_pressure;BME280_temperature;BME280_humidity;BME280_pressure;Samples;Min_cycle;Max_cycle;Signal;HPM_P1;HPM_P2
2021/11/28 00:01:10;;;;;;;28.13;8.37;;;;;;;8.87;51.43;100757.91;5071167;28;20044;-61
2021/11/28 00:03:38;;;;;;;19.33;7.67;;;;;;;8.91;51.46;100769.38;5058601;28;20040;-62
2021/11/28 00:06:15;;;;;;;15.27;7.80;;;;;;;8.76;51.49;100750.59;5071154;28;20135;-60
2021/11/28 00:14:13;;;;;;;12.47;5.63;;;;;;;8.64;52.14;100764.66;5048276;28;20053;-61
2021/11/28 00:16:41;;;;;;;19.60;7.70;;;;;;;8.50;52.29;100732.78;5070392;28;20095;-62
2021/11/28 00:19:08;;;;;;;21.83;7.33;;;;;;;8.74;52.25;100781.47;5066112;28;20079;-61
2021/11/28 00:21:35;;;;;;;18.83;7.03;;;;;;;8.72;52.38;100783.69;5071437;28;20080;-60
2021/11/28 00:24:03;;;;;;;13.77;5.67;;;;;;;8.71;52.39;100781.16;5070982;28;20120;-60
2021/11/28 00:26:30;;;;;;;10.67;5.33;;;;;;;8.70;52.71;100771.13;5070514;28;20080;-59
2021/11/28 00:28:58;;;;;;;15.43;6.13;;;;;;;8.71;52.58;100768.06;5071810;28;20080;-58
2021/11/28 00:31:25;;;;;;;13.97;4.67;;;;;;;8.74;52.81;100767.53;5070730;28;20144;-60
2021/11/28 00:33:52;;;;;;;10.93;5.30;;;;;;;8.68;52.62;100757.47;5072746;28;20622;-62
2021/11/28 00:36:18;;;;;;;11.47;5.33;;;;;;;8.78;52.69;100777.03;5064756;28;20068;-60
2021/11/28 00:38:45;;;;;;;15.17;5.60;;;;;;;8.81;52.67;100774.84;5068638;28;20080;-59
2021/11/28 00:41:12;;;;;;;11.73;5.70;;;;;;;8.83;52.55;100772.66;5071513;28;20128;-59
2021/11/28 00:43:40;;;;;;;11.53;4.60;;;;;;;8.58;52.54;100737.03;5068231;28;20177;-60
2021/11/28 00:46:07;;;;;;;10.87;5.57;;;;;;;8.80;52.66;100765.66;5069768;28;20090;-60
2021/11/28 00:48:37;;;;;;;10.20;5.83;;;;;;;8.70;52.82;100746.06;5070517;28;20064;-61
2021/11/28 00:53:44;;;;;;;11.53;5.00;;;;;;;8.77;52.70;100752.25;5063685;28;20056;-59
2021/11/28 00:56:11;;;;;;;17.80;5.50;;;;;;;8.83;52.84;100764.28;5069356;28;20049;-59
2021/11/28 00:58:38;;;;;;;11.33;5.63;;;;;;;8.80;52.80;100767.59;5069047;28;20128;-60
2021/11/28 01:01:05;;;;;;;11.97;4.43;;;;;;;8.67;52.80;100758.56;5069338;28;20132;-60
2021/11/28 01:03:32;;;;;;;14.70;4.60;;;;;;;8.81;52.89;100792.38;5068771;28;20045;-60
2021/11/28 01:05:59;;;;;;;10.73;4.90;;;;;;;8.65;52.80;100755.22;5069182;28;20080;-56
2021/11/28 01:08:26;;;;;;;13.47;4.90;;;;;;;8.83;52.89;100783.78;5069909;28;20049;-62
2021/11/28 01:10:53;;;;;;;10.47;4.40;;;;;;;8.82;52.99;100771.81;5067256;28;20084;-59
2021/11/28 01:13:20;;;;;;;15.53;4.50;;;;;;;8.83;53.01;100778.22;5073095;28;20124;-59
2021/11/28 01:15:47;;;;;;;11.57;4.90;;;;;;;8.78;52.84;100771.47;5072337;28;20504;-59
2021/11/28 01:18:14;;;;;;;13.17;4.63;;;;;;;8.60;52.69;100738.44;5074020;28;20127;-61
2021/11/28 01:20:41;;;;;;;12.30;4.77;;;;;;;8.71;53.13;100765.28;5071195;28;20135;-61
2021/11/28 01:23:07;;;;;;;16.20;4.73;;;;;;;8.71;53.23;100768.06;5072319;28;20632;-61
2021/11/28 01:25:34;;;;;;;9.53;5.27;;;;;;;8.58;53.23;100743.47;5073525;28;20083;-60
2021/11/28 01:28:01;;;;;;;9.07;4.87;;;;;;;8.70;53.04;100766.38;5065615;28;20139;-60
2021/11/28 01:30:30;;;;;;;10.47;4.53;;;;;;;8.63;53.16;100765.75;5074166;28;20098;-63
2021/11/28 01:32:57;;;;;;;14.77;4.27;;;;;;;8.48;53.16;100746.97;5074335;28;20127;-65
2021/11/28 01:35:23;;;;;;;13.77;5.37;;;;;;;8.40;53.23;100741.00;5072122;28;20124;-62
2021/11/28 01:37:50;;;;;;;15.83;5.80;;;;;;;8.34;53.30;100731.72;5074352;28;20387;-66
2021/11/28 01:40:20;;;;;;;14.60;5.13;;;;;;;8.47;53.42;100763.91;5073718;28;20087;-60
2021/11/28 01:42:50;;;;;;;13.45;5.55;;;;;;;8.46;53.49;100774.22;5074422;28;20087;-63
2021/11/28 01:45:22;;;;;;;20.42;6.60;;;;;;;8.45;53.44;100777.25;5072322;28;20139;-67
2021/11/28 01:47:50;;;;;;;13.60;5.27;;;;;;;8.35;53.68;100772.38;5072940;28;20075;-67
2021/11/28 01:50:17;;;;;;;7.93;4.37;;;;;;;8.35;53.73;100765.97;5072619;28;20072;-64
2021/11/28 01:52:44;;;;;;;10.73;5.13;;;;;;;8.38;53.66;100784.97;5074480;28;20091;-65
2021/11/28 01:55:18;;;;;;;13.70;5.30;;;;;;;8.34;53.55;100780.97;5073057;28;20135;-61
2021/11/28 01:57:46;;;;;;;10.07;5.30;;;;;;;8.29;53.86;100785.38;5072882;28;20076;-61
2021/11/28 02:00:18;;;;;;;13.20;4.73;;;;;;;8.17;53.94;100787.47;5073529;28;20135;-70
2021/11/28 02:02:45;;;;;;;12.47;5.17;;;;;;;8.12;53.96;100789.34;5074765;28;20119;-68
2021/11/28 02:05:17;;;;;;;14.87;4.63;;;;;;;7.98;54.31;100786.94;5085902;28;20076;-68
2021/11/28 02:07:44;;;;;;;7.47;4.17;;;;;;;7.92;54.33;100785.19;5074268;28;20472;-65
2021/11/28 02:10:12;;;;;;;9.17;5.93;;;;;;;7.93;54.40;100800.78;5073133;28;20146;-63
2021/11/28 02:12:39;;;;;;;16.53;8.73;;;;;;;7.92;54.32;100801.88;5073313;28;20143;-63
2021/11/28 02:15:08;;;;;;;19.30;9.77;;;;;;;7.94;54.49;100788.56;5072754;28;20587;-62
2021/11/28 02:17:35;;;;;;;18.30;9.53;;;;;;;8.01;54.24;100816.19;5058914;28;20084;-64
2021/11/28 02:20:05;;;;;;;17.40;9.43;;;;;;;7.99;54.44;100807.25;5071865;28;20131;-61
2021/11/28 02:22:33;;;;;;;17.42;9.63;;;;;;;7.98;54.48;100805.56;5075570;28;20043;-61
2021/11/28 02:25:04;;;;;;;20.10;8.73;;;;;;;7.93;54.23;100791.59;5073891;28;20082;-61
2021/11/28 02:27:31;;;;;;;18.57;8.93;;;;;;;8.03;54.22;100808.41;5074932;28;20049;-61
2021/11/28 02:29:58;;;;;;;18.67;7.83;;;;;;;8.04;54.35;100804.56;5073067;28;20136;-61
2021/11/28 02:32:25;;;;;;;20.23;8.03;;;;;;;8.04;54.34;100812.91;5070931;28;20070;-62
2021/11/28 02:34:52;;;;;;;15.93;7.33;;;;;;;8.00;54.31;100808.91;5087853;28;20044;-61
2021/11/28 02:37:19;;;;;;;9.57;6.20;;;;;;;7.94;54.36;100802.47;5073482;28;20143;-61
2021/11/28 02:39:46;;;;;;;12.20;7.00;;;;;;;7.91;54.70;100816.88;5071896;28;20102;-62
2021/11/28 02:42:17;;;;;;;16.83;7.27;;;;;;;7.83;54.49;100812.59;5073867;28;20120;-62
2021/11/28 02:44:44;;;;;;;15.60;7.30;;;;;;;7.92;54.41;100829.69;5072955;28;20119;-63
2021/11/28 02:47:11;;;;;;;14.20;6.17;;;;;;;7.83;54.54;100820.94;5077023;28;20049;-61
2021/11/28 02:49:38;;;;;;;18.47;7.17;;;;;;;7.84;54.57;100828.19;5064966;28;20040;-61
2021/11/28 02:52:10;;;;;;;14.50;5.50;;;;;;;7.83;54.41;100829.28;5071363;28;20068;-63
2021/11/28 02:54:37;;;;;;;18.80;6.77;;;;;;;7.84;54.44;100838.47;5072261;28;20135;-62
2021/11/28 02:57:08;;;;;;;9.67;5.70;;;;;;;7.81;54.46;100834.25;5071982;28;20155;-63
2021/11/28 02:59:35;;;;;;;17.73;6.43;;;;;;;7.78;54.96;100834.75;5055626;28;20539;-63
2021/11/28 03:02:02;;;;;;;20.23;7.50;;;;;;;7.71;54.66;100828.53;5073355;28;20127;-63
2021/11/28 03:04:30;;;;;;;18.47;6.23;;;;;;;7.72;54.69;100841.34;5079152;28;20074;-61
2021/11/28 03:06:57;;;;;;;11.20;5.53;;;;;;;7.64;54.79;100822.31;5072341;28;20079;-61
2021/11/28 03:09:23;;;;;;;16.50;5.47;;;;;;;7.51;54.89;100808.78;5071347;28;20388;-61
2021/11/28 03:11:50;;;;;;;15.60;6.67;;;;;;;7.66;54.71;100834.03;5071211;28;20068;-62
2021/11/28 03:14:17;;;;;;;15.03;7.10;;;;;;;7.65;54.78;100825.94;5072747;28;20139;-63
2021/11/28 03:16:44;;;;;;;16.03;6.83;;;;;;;7.48;54.73;100795.38;5071812;28;20128;-62
2021/11/28 03:19:11;;;;;;;11.80;4.40;;;;;;;7.55;55.08;100821.06;5070170;28;20125;-63
2021/11/28 03:21:38;;;;;;;12.57;4.47;;;;;;;7.45;55.13;100824.50;5072066;28;20076;-62
2021/11/28 03:24:06;;;;;;;17.53;4.67;;;;;;;7.32;55.77;100820.16;5072465;28;20060;-62
2021/11/28 03:26:39;;;;;;;16.43;4.70;;;;;;;7.23;55.91;100818.03;5076510;28;20135;-63
2021/11/28 03:29:16;;;;;;;8.30;3.77;;;;;;;7.09;55.99;100803.66;5083764;28;20135;-59
2021/11/28 03:31:47;;;;;;;9.17;3.50;;;;;;;7.18;56.21;100818.81;5071618;28;20148;-59
2021/11/28 03:34:17;;;;;;;12.27;4.13;;;;;;;7.23;56.35;100820.81;5071987;28;20496;-61
2021/11/28 03:36:48;;;;;;;6.45;3.40;;;;;;;7.22;56.27;100808.03;5071189;28;20075;-61
2021/11/28 03:39:17;;;;;;;7.93;4.27;;;;;;;7.02;56.24;100772.44;5076772;28;20132;-59
2021/11/28 03:41:48;;;;;;;7.53;2.80;;;;;;;7.31;56.25;100814.84;5071532;28;20083;-59
2021/11/28 03:44:16;;;;;;;11.27;4.13;;;;;;;7.34;56.25;100812.41;5071113;28;20094;-60
2021/11/28 03:46:43;;;;;;;8.30;3.40;;;;;;;7.35;56.33;100811.31;5072267;28;20072;-60
2021/11/28 03:49:10;;;;;;;11.77;3.27;;;;;;;7.17;56.31;100780.16;5071552;28;20087;-59
2021/11/28 03:51:37;;;;;;;8.70;3.10;;;;;;;7.38;56.18;100812.72;5070777;28;20506;-59
2021/11/28 03:54:03;;;;;;;5.60;3.13;;;;;;;7.38;55.98;100798.84;5072093;28;20441;-61
2021/11/28 03:56:31;;;;;;;6.50;3.00;;;;;;;7.26;55.73;100790.59;5070701;28;20068;-60
2021/11/28 03:58:58;;;;;;;7.90;2.93;;;;;;;7.41;56.13;100808.59;5071560;28;20555;-60
2021/11/28 04:01:26;;;;;;;11.33;3.00;;;;;;;7.41;55.92;100814.16;5068073;28;20139;-60
2021/11/28 04:03:54;;;;;;;8.77;2.90;;;;;;;7.26;55.96;100790.59;5077494;28;20045;-59
2021/11/28 04:06:22;;;;;;;12.00;2.90;;;;;;;7.41;55.92;100817.78;5068459;28;20080;-59
2021/11/28 04:08:50;;;;;;;9.17;3.77;;;;;;;7.33;55.95;100798.78;5075180;28;20644;-59
2021/11/28 04:11:18;;;;;;;6.93;3.60;;;;;;;7.44;56.15;100819.22;5075943;28;20116;-59
2021/11/28 04:13:45;;;;;;;5.53;3.20;;;;;;;7.43;55.99;100820.31;5088682;28;20133;-62
2021/11/28 04:16:12;;;;;;;8.30;3.20;;;;;;;7.38;56.12;100818.28;5070935;28;20403;-62
2021/11/28 04:18:40;;;;;;;7.30;3.63;;;;;;;7.43;56.01;100823.09;5081579;28;20562;-62
2021/11/28 04:21:07;;;;;;;6.00;3.40;;;;;;;7.45;55.95;100829.22;5077740;28;20152;-62
2021/11/28 04:23:34;;;;;;;7.93;3.70;;;;;;;7.44;55.95;100836.72;5072594;28;20064;-61
2021/11/28 04:26:01;;;;;;;11.87;3.60;;;;;;;7.38;56.17;100836.91;5071289;28;20040;-60
2021/11/28 04:28:29;;;;;;;12.40;3.80;;;;;;;7.19;56.12;100816.88;5083038;28;20048;-61
2021/11/28 04:30:55;;;;;;;6.13;3.20;;;;;;;7.35;56.16;100832.72;5076079;28;20084;-60
2021/11/28 04:33:22;;;;;;;10.13;4.07;;;;;;;7.31;56.11;100828.72;5070441;28;20044;-61
2021/11/28 04:35:49;;;;;;;9.80;3.73;;;;;;;7.35;56.34;100839.09;5069542;28;20455;-61
2021/11/28 04:38:16;;;;;;;12.23;4.47;;;;;;;7.36;56.34;100838.00;5071484;28;20576;-61
2021/11/28 04:40:44;;;;;;;10.07;3.80;;;;;;;7.45;56.46;100851.47;5069638;28;20102;-60
2021/11/28 04:43:11;;;;;;;12.97;3.30;;;;;;;7.43;56.40;100851.72;5069130;28;20132;-61
2021/11/28 04:45:37;;;;;;;8.83;3.63;;;;;;;7.40;56.20;100849.44;5074873;28;20905;-62
2021/11/28 04:48:05;;;;;;;9.30;3.17;;;;;;;7.19;56.54;100822.44;5075890;28;20131;-62
2021/11/28 04:50:36;;;;;;;10.73;3.77;;;;;;;7.31;56.90;100848.19;5074689;28;20045;-62
2021/11/28 04:53:04;;;;;;;15.63;4.43;;;;;;;7.37;56.85;100866.63;5074230;28;20139;-63
2021/11/28 04:55:31;;;;;;;9.83;3.80;;;;;;;7.39;56.81;100866.38;5075082;28;20124;-63
2021/11/28 04:57:58;;;;;;;11.33;3.90;;;;;;;7.25;57.20;100863.94;5069704;28;20131;-64
2021/11/28 05:00:26;;;;;;;6.20;2.90;;;;;;;7.36;57.17;100876.06;5074957;28;20044;-63
2021/11/28 05:02:55;;;;;;;10.40;2.87;;;;;;;7.24;57.17;100850.28;5075608;28;20593;-63
2021/11/28 05:05:23;;;;;;;13.10;4.20;;;;;;;7.37;57.06;100866.63;5073616;28;20083;-65
2021/11/28 05:07:51;;;;;;;11.93;4.00;;;;;;;7.40;57.11;100876.41;5070099;28;20485;-65
2021/11/28 05:10:18;;;;;;;8.87;3.70;;;;;;;7.40;57.06;100865.28;5060683;28;20568;-66
2021/11/28 05:12:45;;;;;;;8.33;3.70;;;;;;;7.42;56.85;100868.63;5073255;28;20431;-66
2021/11/28 05:15:12;;;;;;;9.10;3.83;;;;;;;7.39;56.67;100871.94;5074794;28;20609;-66
2021/11/28 05:17:39;;;;;;;18.13;3.60;;;;;;;7.41;56.55;100870.56;5073165;28;20132;-64
2021/11/28 05:20:07;;;;;;;6.83;2.63;;;;;;;7.19;56.37;100826.03;5074453;28;20076;-65
2021/11/28 05:22:34;;;;;;;8.30;3.57;;;;;;;7.44;56.57;100872.84;5074859;28;20144;-62
2021/11/28 05:25:03;;;;;;;6.30;3.17;;;;;;;7.42;56.31;100872.28;5071095;28;20571;-62
2021/11/28 05:27:30;;;;;;;13.53;3.50;;;;;;;7.40;56.24;100882.78;5074468;28;20484;-62
2021/11/28 05:29:57;;;;;;;10.10;3.43;;;;;;;7.38;56.20;100884.13;5075261;28;20136;-60
2021/11/28 05:32:24;;;;;;;8.03;3.43;;;;;;;7.29;56.94;100887.34;5073909;28;20135;-60
2021/11/28 05:34:52;;;;;;;7.07;3.03;;;;;;;7.28;56.51;100885.66;5074172;28;20132;-65
2021/11/28 05:37:19;;;;;;;8.10;3.83;;;;;;;7.26;56.54;100887.00;5073753;28;20150;-65
2021/11/28 05:39:46;;;;;;;10.90;3.57;;;;;;;7.26;56.61;100892.53;5074919;28;20048;-65
2021/11/28 05:42:13;;;;;;;9.03;4.37;;;;;;;7.27;56.91;100889.50;5062489;28;20477;-65
2021/11/28 05:44:40;;;;;;;10.77;3.53;;;;;;;7.32;56.93;100892.38;5053739;28;20140;-66
2021/11/28 05:47:07;;;;;;;11.90;4.40;;;;;;;7.32;56.86;100897.09;5071205;28;20049;-67
2021/11/28 05:49:34;;;;;;;8.03;3.23;;;;;;;7.31;56.82;100901.78;5074937;28;20511;-63
2021/11/28 05:52:01;;;;;;;12.73;4.13;;;;;;;7.26;56.81;100890.59;5073843;28;20080;-64
2021/11/28 05:54:28;;;;;;;9.60;3.20;;;;;;;7.23;57.05;100898.59;5074811;28;20044;-64
2021/11/28 05:56:54;;;;;;;6.20;2.80;;;;;;;7.25;56.82;100900.03;5070792;28;20080;-63
2021/11/28 05:59:21;;;;;;;11.00;3.43;;;;;;;7.24;56.77;100917.78;5073137;28;20544;-63
2021/11/28 06:01:48;;;;;;;6.23;3.17;;;;;;;7.24;56.42;100901.13;5074158;28;20412;-64
2021/11/28 06:04:15;;;;;;;7.00;2.93;;;;;;;7.23;56.95;100905.00;5074059;28;20132;-63
2021/11/28 06:06:42;;;;;;;8.50;3.30;;;;;;;7.22;56.96;100911.66;5073782;28;20072;-62
2021/11/28 06:09:09;;;;;;;11.80;2.97;;;;;;;7.19;56.84;100917.69;5073829;28;20511;-62
2021/11/28 06:11:36;;;;;;;5.87;2.50;;;;;;;7.09;57.12;100901.69;5072210;28;20127;-63
2021/11/28 06:14:03;;;;;;;10.53;3.73;;;;;;;7.24;57.06;100909.44;5074393;28;20095;-63
2021/11/28 06:16:31;;;;;;;8.37;3.63;;;;;;;7.23;57.01;100918.03;5070693;28;20094;-63
2021/11/28 06:18:58;;;;;;;7.80;3.10;;;;;;;7.12;57.02;100905.91;5089933;28;20048;-65
2021/11/28 06:21:25;;;;;;;14.63;3.73;;;;;;;7.16;57.13;100920.97;5072863;28;20120;-64
2021/11/28 06:23:52;;;;;;;6.37;2.80;;;;;;;7.11;56.99;100930.06;5074245;28;20072;-66
2021/11/28 06:26:19;;;;;;;5.97;2.57;;;;;;;7.11;57.10;100927.28;5090465;28;20083;-63
2021/11/28 06:28:46;;;;;;;8.73;3.43;;;;;;;6.97;57.11;100906.44;5073424;28;20048;-63
2021/11/28 06:31:13;;;;;;;10.67;2.77;;;;;;;7.12;57.40;100933.69;5073164;28;20087;-65
2021/11/28 06:33:40;;;;;;;9.70;2.67;;;;;;;7.13;57.48;100944.53;5066548;28;20048;-63
2021/11/28 06:36:07;;;;;;;4.93;2.17;;;;;;;7.07;57.76;100939.97;5072461;28;20135;-62
2021/11/28 06:38:35;;;;;;;14.87;3.20;;;;;;;7.15;58.02;100957.34;5073912;28;20071;-63
2021/11/28 06:41:02;;;;;;;5.93;2.07;;;;;;;7.20;58.06;100961.03;5072355;28;20131;-64
2021/11/28 06:43:29;;;;;;;8.67;2.47;;;;;;;7.16;58.15;100943.19;5072455;28;20127;-59
2021/11/28 06:45:57;;;;;;;7.30;1.97;;;;;;;7.35;58.10;100964.13;5072654;28;20044;-59
2021/11/28 06:48:24;;;;;;;5.80;1.83;;;;;;;7.15;58.27;100933.19;5072576;28;20044;-59
2021/11/28 06:50:51;;;;;;;5.23;2.53;;;;;;;7.19;58.04;100931.59;5079963;28;20079;-59
2021/11/28 06:53:18;;;;;;;10.03;2.50;;;;;;;7.45;57.72;100973.72;5069648;28;20090;-59
2021/11/28 06:55:45;;;;;;;9.57;2.93;;;;;;;7.44;57.53;100970.09;5072415;28;20444;-60
2021/11/28 06:58:12;;;;;;;6.77;2.33;;;;;;;7.46;57.65;100981.81;5072015;28;20547;-60
2021/11/28 07:00:39;;;;;;;3.70;2.13;;;;;;;7.46;57.68;100983.78;5072959;28;20127;-60
2021/11/28 07:03:06;;;;;;;11.83;3.30;;;;;;;7.47;57.50;100991.00;5074979;28;20041;-59
2021/11/28 07:05:33;;;;;;;7.13;2.90;;;;;;;7.43;57.23;100982.31;5072552;28;20583;-60
2021/11/28 07:08:00;;;;;;;6.60;2.63;;;;;;;7.47;57.16;101000.19;5071078;28;20072;-60
2021/11/28 07:10:27;;;;;;;11.07;3.13;;;;;;;7.29;57.13;100981.78;5071157;28;20127;-59
2021/11/28 07:12:53;;;;;;;8.90;2.83;;;;;;;7.25;57.19;100996.44;5068449;28;20473;-59
2021/11/28 07:15:20;;;;;;;7.47;3.93;;;;;;;7.30;57.60;101011.25;5068312;28;20128;-58
2021/11/28 07:17:47;;;;;;;9.90;4.37;;;;;;;7.32;57.46;101013.78;5071832;28;20090;-61
2021/11/28 07:20:14;;;;;;;12.20;4.97;;;;;;;7.28;57.46;101005.09;5067973;28;20139;-59
2021/11/28 07:22:41;;;;;;;12.37;5.03;;;;;;;7.07;57.49;100986.34;5071236;28;20127;-58
2021/11/28 07:25:08;;;;;;;10.70;5.27;;;;;;;7.25;57.61;101005.59;5063863;28;20080;-52
2021/11/28 07:27:35;;;;;;;13.23;4.90;;;;;;;7.26;57.53;101015.63;5068825;28;20496;-56
2021/11/28 07:30:04;;;;;;;14.07;5.33;;;;;;;7.13;57.75;101010.34;5070156;28;20586;-58
2021/11/28 07:32:30;;;;;;;10.63;5.83;;;;;;;7.26;57.89;101014.78;5073061;28;20084;-58
2021/11/28 07:34:57;;;;;;;14.67;6.23;;;;;;;7.38;58.00;101028.59;5069726;28;20119;-55
2021/11/28 07:37:24;;;;;;;8.57;5.17;;;;;;;7.36;57.59;101021.38;5072023;28;20530;-58
2021/11/28 07:39:51;;;;;;;10.83;4.87;;;;;;;7.31;58.00;101029.59;5071566;28;20445;-59
2021/11/28 07:42:18;;;;;;;11.93;5.33;;;;;;;7.17;58.09;101016.25;5067844;28;20454;-59
2021/11/28 07:44:45;;;;;;;9.37;4.50;;;;;;;7.12;58.26;101028.09;5070962;28;20131;-60
2021/11/28 07:47:12;;;;;;;12.67;4.33;;;;;;;7.02;58.19;101030.66;5071503;28;20094;-59
2021/11/28 07:49:39;;;;;;;10.87;5.30;;;;;;;6.82;58.51;101015.25;5069989;28;20086;-59
2021/11/28 07:52:06;;;;;;;9.83;5.23;;;;;;;6.90;58.63;101022.34;5071313;28;20472;-70
2021/11/28 07:54:34;;;;;;;8.20;4.50;;;;;;;6.89;59.02;101035.41;5070580;28;20617;-56
2021/11/28 07:57:02;;;;;;;5.60;3.50;;;;;;;6.72;59.35;101028.91;5071478;28;20157;-59
2021/11/28 07:59:32;;;;;;;11.10;5.23;;;;;;;6.59;59.66;101023.59;5069152;28;20132;-58
2021/11/28 08:01:59;;;;;;;8.53;4.90;;;;;;;6.48;60.07;101041.97;5068678;28;20128;-58
2021/11/28 08:04:27;;;;;;;12.83;6.57;;;;;;;6.26;60.46;101038.13;5070302;28;20370;-58
2021/11/28 08:06:54;;;;;;;12.03;7.27;;;;;;;6.23;60.75;101055.22;5073271;28;20084;-58
2021/11/28 08:09:21;;;;;;;13.87;8.00;;;;;;;6.13;60.57;101030.84;5071044;28;20183;-58
2021/11/28 08:11:48;;;;;;;10.03;7.00;;;;;;;6.25;60.64;101047.50;5072357;28;20165;-58
2021/11/28 08:14:15;;;;;;;13.20;6.37;;;;;;;6.24;60.96;101041.09;5071260;28;20193;-59
2021/11/28 08:16:42;;;;;;;10.60;4.67;;;;;;;6.27;61.27;101062.81;5068117;28;20462;-58
2021/11/28 08:19:09;;;;;;;8.43;4.03;;;;;;;6.34;61.27;101058.00;5070957;28;20040;-58
2021/11/28 08:21:36;;;;;;;7.83;4.03;;;;;;;6.37;61.14;101065.84;5071098;28;20551;-58
2021/11/28 08:24:06;;;;;;;5.97;3.70;;;;;;;6.04;62.07;101029.50;5078445;28;20460;-57
2021/11/28 08:26:36;;;;;;;8.45;4.18;;;;;;;5.68;62.04;101020.25;5073340;28;20090;-58
2021/11/28 08:29:05;;;;;;;6.15;3.25;;;;;;;5.96;62.35;101054.81;5074143;28;20159;-56
2021/11/28 08:31:33;;;;;;;5.73;3.30;;;;;;;6.07;62.41;101052.06;5067820;28;20139;-56
2021/11/28 08:34:00;;;;;;;7.60;5.00;;;;;;;6.22;62.67;101040.50;5068614;28;20072;-57
2021/11/28 08:36:27;;;;;;;8.17;3.97;;;;;;;6.79;62.03;101062.09;5051310;28;20084;-57
2021/11/28 08:38:55;;;;;;;5.13;2.63;;;;;;;7.02;61.75;101061.22;5068380;28;20144;-58
2021/11/28 08:41:27;;;;;;;7.93;3.87;;;;;;;7.04;61.24;101064.56;5070414;28;20045;-58
2021/11/28 08:43:55;;;;;;;3.93;2.33;;;;;;;7.01;60.87;101065.94;5069365;28;20131;-58
2021/11/28 08:46:24;;;;;;;7.40;3.80;;;;;;;6.86;60.83;101060.88;5070161;28;20123;-58
2021/11/28 08:48:53;;;;;;;7.73;4.23;;;;;;;6.64;61.07;101059.81;5055070;28;20068;-57
2021/11/28 08:51:25;;;;;;;5.47;3.92;;;;;;;6.56;61.25;101082.38;5070939;28;20090;-56
2021/11/28 08:53:53;;;;;;;8.67;5.17;;;;;;;6.44;61.27;101079.59;5069884;28;20488;-60
2021/11/28 08:56:23;;;;;;;9.00;4.37;;;;;;;6.20;61.76;101064.03;5065273;28;20073;-58
2021/11/28 08:58:51;;;;;;;5.40;2.50;;;;;;;6.17;62.17;101068.09;5073459;28;20033;-58
2021/11/28 09:01:18;;;;;;;4.57;2.87;;;;;;;6.21;62.08;101085.13;5074866;28;20150;-59
2021/11/28 09:03:45;;;;;;;12.67;4.43;;;;;;;6.28;62.08;101099.72;5069052;28;20114;-59
2021/11/28 09:06:13;;;;;;;12.93;5.73;;;;;;;6.28;61.86;101080.31;5069460;28;20099;-59
2021/11/28 09:08:40;;;;;;;6.03;2.97;;;;;;;6.17;61.90;101063.41;5069913;28;20070;-58
2021/11/28 09:11:07;;;;;;;2.00;1.53;;;;;;;6.40;62.14;101087.56;5069974;28;20048;-56
2021/11/28 09:13:36;;;;;;;10.83;4.80;;;;;;;6.43;62.06;101094.56;5068477;28;20561;-59
2021/11/28 09:16:03;;;;;;;7.73;3.30;;;;;;;6.46;61.90;101087.66;5061658;28;20076;-59
2021/11/28 09:18:55;;;;;;;4.33;2.83;;;;;;;6.46;61.90;101096.00;5068776;28;20048;-59
2021/11/28 09:21:22;;;;;;;6.30;4.43;;;;;;;6.22;62.16;101059.06;5065311;28;20123;-56
2021/11/28 09:26:35;;;;;;;7.73;3.93;;;;;;;6.54;62.41;101088.16;5067667;28;20128;-61
2021/11/28 09:29:03;;;;;;;7.20;3.47;;;;;;;6.49;62.59;101081.63;5070401;28;20119;-58
2021/11/28 09:31:31;;;;;;;14.00;5.50;;;;;;;6.53;62.36;101086.50;5069320;28;20127;-56
2021/11/28 09:33:59;;;;;;;15.20;6.93;;;;;;;7.04;62.84;101111.78;5071700;28;20047;-56
2021/11/28 09:36:28;;;;;;;10.30;6.37;;;;;;;8.14;62.76;101077.31;5072408;28;20076;-53
2021/11/28 09:38:55;;;;;;;9.40;5.63;;;;;;;9.69;60.72;101094.03;5072094;28;20049;-55
2021/11/28 09:41:24;;;;;;;8.90;5.47;;;;;;;10.80;59.00;101086.13;5072179;28;20412;-56
2021/11/28 09:43:54;;;;;;;9.80;5.63;;;;;;;10.95;57.89;101100.22;5073188;28;20133;-55
2021/11/28 09:46:24;;;;;;;10.80;5.53;;;;;;;10.86;57.49;101107.41;5071654;28;20131;-57
2021/11/28 09:48:59;;;;;;;13.10;4.50;;;;;;;10.82;57.57;101109.88;5072191;28;20040;-56
2021/11/28 09:51:29;;;;;;;9.43;3.93;;;;;;;10.15;56.80;101086.16;5072770;28;20451;-56
2021/11/28 09:53:58;;;;;;;7.43;4.60;;;;;;;10.00;56.72;101116.69;5071497;28;20076;-57
2021/11/28 09:56:27;;;;;;;10.73;4.13;;;;;;;9.73;56.78;101127.81;5071269;28;20040;-55
2021/11/28 09:58:54;;;;;;;11.57;5.20;;;;;;;9.40;56.90;101121.28;5069939;28;20136;-56
2021/11/28 10:01:22;;;;;;;9.67;4.57;;;;;;;8.94;57.57;101091.94;5072622;28;20045;-57
2021/11/28 10:03:49;;;;;;;9.33;4.37;;;;;;;9.08;57.56;101125.84;5073443;28;20050;-57
2021/11/28 10:06:18;;;;;;;10.17;5.07;;;;;;;8.91;57.45;101120.31;5074011;28;20056;-56
2021/11/28 10:08:45;;;;;;;8.50;5.03;;;;;;;8.86;57.64;101134.19;5076702;28;20076;-56
2021/11/28 10:11:17;;;;;;;6.97;4.10;;;;;;;8.75;57.69;101139.59;5072036;28;20078;-56
2021/11/28 10:13:47;;;;;;;8.43;3.63;;;;;;;8.69;57.88;101140.59;5069850;28;20048;-57
2021/11/28 10:16:14;;;;;;;8.23;4.07;;;;;;;8.59;58.06;101143.22;5065372;28;20548;-56
2021/11/28 10:18:42;;;;;;;5.33;3.60;;;;;;;8.67;58.00;101148.34;5067405;28;20055;-56
2021/11/28 10:21:09;;;;;;;7.93;3.43;;;;;;;8.67;58.25;101136.38;5072417;28;20044;-57
2021/11/28 10:24:08;;;;;;;7.23;3.43;;;;;;;8.66;58.24;101152.25;5070323;28;20483;-56
2021/11/28 10:26:40;;;;;;;14.40;4.70;;;;;;;8.64;58.13;101150.78;5073302;28;20144;-56
2021/11/28 10:29:15;;;;;;;13.37;4.23;;;;;;;8.64;58.05;101140.50;5072582;28;20076;-57
2021/11/28 10:31:43;;;;;;;12.03;4.63;;;;;;;8.64;58.26;101137.72;5067641;28;20124;-56
2021/11/28 10:34:21;;;;;;;10.60;4.93;;;;;;;9.01;58.12;101153.91;5069230;28;20072;-56
2021/11/28 10:36:50;;;;;;;11.60;3.70;;;;;;;9.37;57.75;101157.22;5070100;28;20128;-58
2021/11/28 10:39:22;;;;;;;9.07;4.47;;;;;;;9.35;57.35;101160.25;5073012;28;20123;-57
2021/11/28 10:41:55;;;;;;;8.90;4.67;;;;;;;9.38;56.96;101156.09;5071843;28;20132;-58
2021/11/28 10:44:26;;;;;;;6.43;4.00;;;;;;;9.42;57.13;101155.31;5070475;28;20484;-57
2021/11/28 10:47:04;;;;;;;7.63;3.87;;;;;;;9.59;57.20;101151.63;5065678;28;20532;-54
2021/11/28 10:49:38;;;;;;;7.27;4.00;;;;;;;9.58;56.99;101155.53;5069956;28;20535;-56
2021/11/28 10:52:13;;;;;;;13.05;5.20;;;;;;;9.52;57.04;101149.03;5074117;28;20519;-56
2021/11/28 10:54:44;;;;;;;13.67;6.03;;;;;;;9.77;56.97;101156.03;5068559;28;20138;-55
2021/11/28 10:57:13;;;;;;;12.73;5.70;;;;;;;10.28;56.66;101156.63;5066385;28;20102;-56
2021/11/28 10:59:43;;;;;;;9.23;5.40;;;;;;;10.50;56.59;101137.88;5070073;28;20131;-57
2021/11/28 11:02:23;;;;;;;8.13;3.72;;;;;;;10.84;56.00;101143.16;5085081;28;20106;-57
2021/11/28 11:04:53;;;;;;;;;;;;;;;11.18;55.70;101137.22;5068440;28;20040;-56
2021/11/28 11:07:50;;;;;;;10.85;3.90;;;;;;;11.60;55.54;101143.59;5070469;28;19920;-58
2021/11/28 11:10:29;;;;;;;10.27;4.00;;;;;;;12.00;55.12;101133.72;5070021;28;20094;-57
2021/11/28 11:12:57;;;;;;;12.97;4.90;;;;;;;12.43;54.77;101142.72;5071751;28;20492;-56
2021/11/28 11:15:32;;;;;;;8.97;4.90;;;;;;;12.79;54.43;101135.19;5077506;28;20091;-55
2021/11/28 11:18:02;;;;;;;12.60;4.87;;;;;;;12.99;53.92;101127.84;5070005;28;20083;-57
2021/11/28 11:20:33;;;;;;;11.07;5.27;;;;;;;13.04;53.71;101120.28;5071232;28;20062;-56
2021/11/28 11:23:00;;;;;;;10.03;5.77;;;;;;;13.21;53.41;101135.97;5069593;28;20075;-56
2021/11/28 11:25:36;;;;;;;11.50;5.30;;;;;;;13.39;53.36;101126.13;5062042;28;20076;-56
2021/11/28 11:28:13;;;;;;;14.93;4.90;;;;;;;13.52;53.24;101120.72;5070302;28;20045;-57
2021/11/28 11:30:42;;;;;;;9.10;5.40;;;;;;;13.85;52.61;101103.47;5069659;28;20079;-58
2021/11/28 11:33:10;;;;;;;11.33;4.17;;;;;;;14.26;52.20;101106.88;5071446;28;20099;-55
2021/11/28 11:35:44;;;;;;;10.37;4.30;;;;;;;14.22;51.98;101089.75;5069281;28;20048;-57
2021/11/28 11:38:13;;;;;;;9.60;3.83;;;;;;;14.29;51.86;101111.91;5068940;28;20094;-57
2021/11/28 11:40:41;;;;;;;12.27;5.40;;;;;;;14.19;52.06;101111.97;5069289;28;20124;-56
2021/11/28 11:43:09;;;;;;;13.97;5.03;;;;;;;14.08;52.02;101102.75;5068554;28;20554;-57
2021/11/28 11:45:38;;;;;;;15.00;4.33;;;;;;;14.22;52.00;101105.75;5072221;28;20049;-57